Time;durP1;ratioP1;P1;durP2;ratioP2;P2;SDS_P1;SDS_P2;PMS_P1;PMS_P2;Temp;Humidity;BMP_temperature;BMP_pressure;BME280_temperature;BME280_humidity;BME280_pressure;Samples;Min_cycle;Max_cycle;Signal;HPM_P1;HPM_P2
2023/07/02 00:00:05;;;;;;;18.80;4.65;;;;;;;13.31;100.00;100099.50;4943818;28;20074;-80
2023/07/02 00:02:35;;;;;;;20.20;3.97;;;;;;;13.30;100.00;100103.97;4959867;28;20552;-81
2023/07/02 00:05:01;;;;;;;15.73;4.00;;;;;;;13.25;100.00;100095.72;4973142;28;20100;-81
2023/07/02 00:07:28;;;;;;;14.20;4.50;;;;;;;13.23;100.00;100090.59;4971606;28;20128;-81
2023/07/02 00:09:54;;;;;;;16.50;3.20;;;;;;;13.23;100.00;100095.06;4956224;28;20041;-81
2023/07/02 00:12:20;;;;;;;21.08;4.30;;;;;;;13.22;100.00;100096.88;4952307;28;20031;-81
2023/07/02 00:14:46;;;;;;;19.92;3.20;;;;;;;13.22;100.00;100101.38;4946613;28;20449;-80
2023/07/02 00:17:12;;;;;;;13.27;3.45;;;;;;;13.17;100.00;100099.19;4956525;28;20035;-81
2023/07/02 00:19:41;;;;;;;12.57;3.28;;;;;;;13.16;100.00;100094.91;4954527;28;20073;-81
2023/07/02 00:22:10;;;;;;;16.63;3.20;;;;;;;13.17;100.00;100096.56;4954143;28;20031;-82
2023/07/02 00:24:36;;;;;;;15.45;3.63;;;;;;;13.14;100.00;100096.88;4951045;28;20034;-81
2023/07/02 00:27:03;;;;;;;17.80;3.45;;;;;;;13.09;100.00;100092.09;4959595;28;20122;-81
2023/07/02 00:29:29;;;;;;;17.30;5.35;;;;;;;13.09;100.00;100100.06;4957856;28;20040;-81
2023/07/02 00:31:55;;;;;;;14.05;3.78;;;;;;;13.13;100.00;100097.91;4956981;28;20054;-81
2023/07/02 00:34:20;;;;;;;16.90;3.85;;;;;;;13.20;100.00;100103.38;4961119;28;20051;-82
2023/07/02 00:36:46;;;;;;;16.80;3.60;;;;;;;13.27;100.00;100096.38;4987445;28;20397;-81
2023/07/02 00:39:12;;;;;;;14.82;3.35;;;;;;;13.28;100.00;100098.03;4962845;28;20425;-81
2023/07/02 00:41:39;;;;;;;15.77;3.95;;;;;;;13.28;100.00;100101.50;4970504;28;20043;-81
2023/07/02 00:44:04;;;;;;;13.70;4.18;;;;;;;13.32;100.00;100095.84;4965051;28;20039;-82
2023/07/02 00:46:30;;;;;;;16.90;3.85;;;;;;;13.33;100.00;100105.50;4966370;28;20504;-81
2023/07/02 00:48:58;;;;;;;18.65;3.50;;;;;;;13.35;100.00;100103.47;4936900;29;20126;-83
2023/07/02 00:51:26;;;;;;;16.63;3.53;;;;;;;13.39;100.00;100099.50;4964999;28;20178;-83
2023/07/02 00:53:57;;;;;;;16.77;4.47;;;;;;;13.36;100.00;100089.22;4948773;28;20049;-81
2023/07/02 00:56:25;;;;;;;13.18;3.20;;;;;;;13.34;100.00;100091.22;4961647;28;20030;-82
2023/07/02 00:58:53;;;;;;;10.90;2.78;;;;;;;13.34;100.00;100089.38;4948062;28;20034;-82
2023/07/02 01:01:25;;;;;;;18.77;3.63;;;;;;;13.38;100.00;100087.19;4950081;29;20114;-81
2023/07/02 01:03:59;;;;;;;16.85;3.53;;;;;;;13.38;100.00;100089.84;4934652;28;20066;-82
2023/07/02 01:06:30;;;;;;;15.05;3.40;;;;;;;13.39;100.00;100083.56;4932689;29;20051;-81
2023/07/02 01:08:59;;;;;;;16.23;3.25;;;;;;;13.34;100.00;100089.38;4954561;28;20038;-81
2023/07/02 01:11:33;;;;;;;20.15;4.05;;;;;;;13.38;100.00;100088.03;4963740;28;20038;-81
2023/07/02 01:14:07;;;;;;;16.85;4.10;;;;;;;13.34;100.00;100083.25;4981697;28;20046;-81
2023/07/02 01:16:36;;;;;;;;;;;;;;;13.26;100.00;100079.63;4947385;28;20031;-82
2023/07/02 01:19:08;;;;;;;17.42;3.15;;;;;;;13.31;100.00;100081.78;4959518;28;19918;-81
2023/07/02 01:21:34;;;;;;;16.23;3.22;;;;;;;13.32;100.00;100083.41;4943207;28;20039;-81
2023/07/02 01:24:00;;;;;;;19.58;3.38;;;;;;;13.37;100.00;100088.22;4938900;28;20046;-81
2023/07/02 01:26:33;;;;;;;17.35;3.50;;;;;;;13.38;100.00;100087.19;4933071;28;20046;-81
2023/07/02 01:29:20;;;;;;;19.00;3.58;;;;;;;13.34;100.00;100089.38;4938625;28;20030;-81
2023/07/02 01:31:47;;;;;;;20.42;4.05;;;;;;;13.31;100.00;100083.59;4953399;28;20039;-82
2023/07/02 01:34:13;;;;;;;17.38;4.30;;;;;;;13.26;100.00;100082.28;4937441;28;20041;-79
2023/07/02 01:36:40;;;;;;;19.67;4.50;;;;;;;13.25;100.00;100088.56;4956069;28;20037;-81
2023/07/02 01:39:07;;;;;;;18.65;3.95;;;;;;;13.26;100.00;100095.56;4956061;28;20073;-82
2023/07/02 01:41:51;;;;;;;18.67;3.85;;;;;;;13.23;100.00;100093.25;4938633;28;20023;-81
2023/07/02 01:44:17;;;;;;;20.02;4.10;;;;;;;13.21;100.00;100086.44;4955017;28;20094;-84
2023/07/02 01:46:48;;;;;;;20.95;4.72;;;;;;;13.28;100.00;100090.88;4940162;28;20124;-82
2023/07/02 01:49:18;;;;;;;24.35;3.80;;;;;;;13.31;100.00;100095.03;4961576;28;20049;-83
2023/07/02 01:51:52;;;;;;;20.15;4.47;;;;;;;13.31;100.00;100091.53;4936712;29;20402;-82
2023/07/02 01:54:19;;;;;;;23.40;4.80;;;;;;;13.35;100.00;100095.50;4976602;28;20046;-83
2023/07/02 01:56:44;;;;;;;16.70;3.85;;;;;;;13.37;100.00;100089.03;4937819;29;20031;-83
2023/07/02 01:59:11;;;;;;;21.30;4.28;;;;;;;13.38;100.00;100085.38;4954754;28;20068;-82
2023/07/02 02:01:40;;;;;;;19.73;4.85;;;;;;;13.43;100.00;100089.34;4956620;28;20039;-81
2023/07/02 02:04:07;;;;;;;24.70;4.47;;;;;;;13.47;100.00;100088.00;4964569;28;20066;-81
2023/07/02 02:06:34;;;;;;;22.52;4.57;;;;;;;13.51;100.00;100089.34;4947485;28;20035;-81
2023/07/02 02:09:00;;;;;;;22.38;3.75;;;;;;;13.45;100.00;100077.56;4969346;28;20034;-83
2023/07/02 02:11:27;;;;;;;30.05;5.20;;;;;;;13.44;100.00;100091.00;4939189;28;20046;-85
2023/07/02 02:13:54;;;;;;;30.42;5.05;;;;;;;13.42;100.00;100083.22;4901086;29;20035;-80
2023/07/02 02:16:20;;;;;;;14.80;3.95;;;;;;;13.43;100.00;100081.38;4958493;28;20073;-81
2023/07/02 02:18:46;;;;;;;18.15;4.18;;;;;;;13.40;100.00;100074.59;4955051;28;20050;-81
2023/07/02 02:21:13;;;;;;;25.88;4.18;;;;;;;13.43;100.00;100078.72;4973201;28;20050;-81
2023/07/02 02:23:41;;;;;;;18.38;4.13;;;;;;;13.43;100.00;100073.41;4956324;28;20062;-81
2023/07/02 02:26:07;;;;;;;24.80;4.35;;;;;;;13.39;100.00;100080.91;4969322;28;20043;-81
2023/07/02 02:28:35;;;;;;;23.60;4.00;;;;;;;13.38;100.00;100074.75;4966010;28;20089;-81
2023/07/02 02:31:01;;;;;;;18.38;3.58;;;;;;;13.37;100.00;100072.28;4971302;28;20516;-81
2023/07/02 02:33:27;;;;;;;22.95;4.53;;;;;;;13.37;100.00;100074.94;4953680;28;20039;-81
2023/07/02 02:35:53;;;;;;;24.52;4.63;;;;;;;13.36;100.00;100067.97;4968404;28;20067;-82
2023/07/02 02:38:19;;;;;;;18.38;3.75;;;;;;;13.39;100.00;100070.28;4944946;28;20038;-82
2023/07/02 02:40:46;;;;;;;90.10;9.10;;;;;;;13.40;100.00;100071.94;4956558;28;20066;-81
2023/07/02 02:43:18;;;;;;;27.70;4.70;;;;;;;13.39;100.00;100092.34;4964890;28;20026;-82
2023/07/02 02:45:45;;;;;;;21.25;4.38;;;;;;;13.38;100.00;100089.84;4953144;28;20031;-81
2023/07/02 02:48:12;;;;;;;20.15;3.65;;;;;;;13.35;100.00;100087.53;4968698;28;20863;-81
2023/07/02 02:50:41;;;;;;;28.60;3.50;;;;;;;13.32;100.00;100082.56;4968960;28;20517;-82
2023/07/02 02:53:08;;;;;;;20.23;3.92;;;;;;;13.30;100.00;100076.63;4952771;28;20029;-82
2023/07/02 02:55:35;;;;;;;21.13;3.15;;;;;;;13.26;100.00;100078.78;4946254;28;20037;-83
2023/07/02 02:58:01;;;;;;;21.70;3.80;;;;;;;13.20;100.00;100077.66;4996989;28;20434;-81
2023/07/02 03:00:27;;;;;;;21.77;3.70;;;;;;;13.13;100.00;100074.03;4984689;28;20041;-80
2023/07/02 03:02:53;;;;;;;22.10;3.60;;;;;;;13.14;100.00;100079.16;4942692;28;20069;-80
2023/07/02 03:05:19;;;;;;;22.00;4.30;;;;;;;13.15;100.00;100080.00;4964009;28;20511;-81
2023/07/02 03:07:45;;;;;;;22.77;4.05;;;;;;;13.19;100.00;100089.25;4956966;28;20038;-81
2023/07/02 03:10:11;;;;;;;15.13;3.58;;;;;;;13.20;100.00;100085.63;4971937;28;20468;-81
2023/07/02 03:12:37;;;;;;;19.50;3.55;;;;;;;13.21;100.00;100086.44;4986419;28;20034;-80
2023/07/02 03:15:03;;;;;;;21.40;3.45;;;;;;;13.22;100.00;100077.50;4956387;28;20489;-80
2023/07/02 03:17:29;;;;;;;22.10;3.47;;;;;;;13.23;100.00;100076.47;4938505;28;20477;-81
2023/07/02 03:19:55;;;;;;;20.95;3.33;;;;;;;13.20;100.00;100067.03;4976119;28;20045;-80
2023/07/02 03:22:21;;;;;;;18.73;3.72;;;;;;;13.19;100.00;100061.88;4964508;28;20043;-81
2023/07/02 03:24:47;;;;;;;23.73;3.95;;;;;;;13.15;100.00;100064.88;4959940;28;20135;-82
2023/07/02 03:27:13;;;;;;;21.05;3.60;;;;;;;13.11;100.00;100054.78;4964050;28;20037;-80
2023/07/02 03:29:38;;;;;;;22.25;3.80;;;;;;;13.06;100.00;100063.25;4962069;28;20031;-81
2023/07/02 03:32:05;;;;;;;20.27;3.05;;;;;;;13.07;100.00;100066.75;4969050;28;20043;-81
2023/07/02 03:34:30;;;;;;;23.05;4.25;;;;;;;13.08;100.00;100071.03;4973737;28;20140;-81
2023/07/02 03:36:56;;;;;;;25.65;3.90;;;;;;;13.08;100.00;100065.72;4973976;28;20496;-81
2023/07/02 03:39:22;;;;;;;22.88;4.22;;;;;;;13.09;100.00;100073.53;4967785;28;20038;-80
2023/07/02 03:41:48;;;;;;;22.20;3.60;;;;;;;13.03;100.00;100068.91;4957427;28;20570;-81
2023/07/02 03:44:14;;;;;;;25.15;4.00;;;;;;;13.06;100.00;100067.75;4957944;28;20482;-80
2023/07/02 03:46:39;;;;;;;19.92;4.72;;;;;;;13.05;100.00;100074.03;4960384;28;20042;-81
2023/07/02 03:49:05;;;;;;;22.05;3.78;;;;;;;13.11;100.00;100073.34;4963198;28;20225;-82
2023/07/02 03:51:32;;;;;;;17.27;3.03;;;;;;;13.16;100.00;100076.31;4973223;28;20073;-84
2023/07/02 03:53:58;;;;;;;20.85;4.13;;;;;;;13.19;100.00;100081.28;4970126;28;20046;-81
2023/07/02 03:56:24;;;;;;;22.13;4.00;;;;;;;13.22;100.00;100078.31;4995188;28;20046;-80
2023/07/02 03:58:50;;;;;;;172.00;28.83;;;;;;;13.22;100.00;100080.94;4944831;28;20065;-81
2023/07/02 04:01:16;;;;;;;24.42;4.35;;;;;;;13.23;100.00;100085.28;4975619;28;20555;-81
2023/07/02 04:03:48;;;;;;;21.90;3.95;;;;;;;13.24;100.00;100088.75;4972654;28;20174;-80
2023/07/02 04:06:14;;;;;;;110.95;10.73;;;;;;;13.09;100.00;100081.47;4957280;28;20042;-81
2023/07/02 04:08:40;;;;;;;19.98;3.30;;;;;;;12.92;100.00;100074.56;4945374;28;20026;-81
2023/07/02 04:11:06;;;;;;;22.20;3.40;;;;;;;12.93;100.00;100078.88;4960138;28;20435;-80
2023/07/02 04:13:32;;;;;;;18.98;4.13;;;;;;;12.92;100.00;100075.41;4971523;28;20480;-81
2023/07/02 04:15:58;;;;;;;17.38;3.20;;;;;;;12.94;100.00;100070.75;4944915;28;20728;-81
2023/07/02 04:18:24;;;;;;;18.58;3.35;;;;;;;12.98;100.00;100069.41;4944822;28;20065;-80
2023/07/02 04:20:50;;;;;;;21.77;3.60;;;;;;;13.00;100.00;100066.59;4952492;28;20030;-80
2023/07/02 04:23:16;;;;;;;16.25;3.88;;;;;;;13.02;100.00;100069.91;4963759;28;20584;-82
2023/07/02 04:25:42;;;;;;;21.48;3.65;;;;;;;13.03;100.00;100059.13;4973609;28;20026;-80
2023/07/02 04:28:08;;;;;;;24.70;4.00;;;;;;;13.06;100.00;100057.13;4960857;28;20060;-80
2023/07/02 04:30:34;;;;;;;20.98;4.50;;;;;;;13.08;100.00;100065.72;4966251;28;20030;-80
2023/07/02 04:33:00;;;;;;;20.02;4.45;;;;;;;13.08;100.00;100055.13;4948466;28;20042;-81
2023/07/02 04:35:26;;;;;;;24.30;4.43;;;;;;;13.05;100.00;100060.75;4969746;28;20794;-80
2023/07/02 04:37:52;;;;;;;22.80;3.90;;;;;;;13.03;100.00;100053.81;4954478;28;20040;-81
2023/07/02 04:40:18;;;;;;;19.63;3.47;;;;;;;13.02;100.00;100057.47;4976446;28;20037;-82
2023/07/02 04:42:46;;;;;;;21.20;3.47;;;;;;;13.03;100.00;100059.13;4973542;28;20038;-81
2023/07/02 04:45:17;;;;;;;21.00;4.10;;;;;;;13.08;100.00;100063.91;4981212;28;20033;-81
2023/07/02 04:47:43;;;;;;;22.27;3.20;;;;;;;13.09;100.00;100056.78;4985690;28;20109;-81
2023/07/02 04:50:09;;;;;;;15.57;3.38;;;;;;;13.14;100.00;100068.53;4957455;28;20038;-81
2023/07/02 04:52:35;;;;;;;19.55;4.30;;;;;;;13.12;100.00;100067.06;4973438;28;20045;-81
2023/07/02 04:55:02;;;;;;;22.30;3.30;;;;;;;13.12;100.00;100057.25;4961774;28;20141;-80
2023/07/02 04:57:28;;;;;;;20.13;3.45;;;;;;;13.05;100.00;100061.59;4959028;28;20038;-80
2023/07/02 04:59:54;;;;;;;14.77;3.03;;;;;;;13.06;100.00;100062.44;4952293;28;20070;-81
2023/07/02 05:02:20;;;;;;;22.35;3.45;;;;;;;13.02;100.00;100068.09;4974648;28;20027;-81
2023/07/02 05:04:46;;;;;;;19.50;3.53;;;;;;;13.03;100.00;100069.72;4962764;28;20034;-80
2023/07/02 05:07:12;;;;;;;21.55;3.75;;;;;;;13.04;100.00;100067.91;4970992;28;20720;-81
2023/07/02 05:09:37;;;;;;;17.13;3.33;;;;;;;13.09;100.00;100065.56;4972263;28;20387;-80
2023/07/02 05:12:03;;;;;;;22.05;3.80;;;;;;;13.10;100.00;100067.25;4946213;28;20485;-82
2023/07/02 05:14:29;;;;;;;19.48;3.97;;;;;;;13.11;100.00;100073.34;4965751;28;20038;-81
2023/07/02 05:16:55;;;;;;;22.95;4.35;;;;;;;13.13;100.00;100066.06;4973561;28;20069;-80
2023/07/02 05:19:21;;;;;;;15.38;3.95;;;;;;;13.13;100.00;100068.72;4958067;28;20049;-82
2023/07/02 05:21:47;;;;;;;18.55;3.13;;;;;;;13.17;100.00;100066.56;4944916;28;20073;-81
2023/07/02 05:24:12;;;;;;;24.13;3.80;;;;;;;13.15;100.00;100061.41;4954163;28;20397;-83
2023/07/02 05:26:38;;;;;;;19.35;3.33;;;;;;;13.14;100.00;100068.53;4974188;28;20039;-81
2023/07/02 05:29:05;;;;;;;17.67;3.90;;;;;;;13.17;100.00;100069.22;4980363;28;20033;-81
2023/07/02 05:31:31;;;;;;;22.23;3.38;;;;;;;13.20;100.00;100066.22;4963732;28;20137;-81
2023/07/02 05:33:57;;;;;;;13.98;2.90;;;;;;;13.20;100.00;100059.09;4960999;28;20034;-81
2023/07/02 05:36:23;;;;;;;18.88;3.55;;;;;;;13.19;100.00;100061.88;4957249;28;20070;-80
2023/07/02 05:38:49;;;;;;;18.38;3.55;;;;;;;13.21;100.00;100063.38;4962896;28;20039;-82
2023/07/02 05:41:19;;;;;;;18.95;4.30;;;;;;;13.22;100.00;100061.56;4944250;28;20042;-82
2023/07/02 05:43:45;;;;;;;18.92;2.90;;;;;;;13.15;100.00;100056.09;4960870;28;20034;-83
2023/07/02 05:46:12;;;;;;;19.73;3.53;;;;;;;13.18;100.00;100068.19;4976102;28;20044;-82
2023/07/02 05:48:38;;;;;;;18.13;3.30;;;;;;;13.17;100.00;100061.25;4957367;28;20488;-81
2023/07/02 05:51:04;;;;;;;26.25;3.78;;;;;;;13.21;100.00;100067.84;4943532;28;20057;-81
2023/07/02 05:53:30;;;;;;;16.10;3.17;;;;;;;13.22;100.00;100069.53;4958678;28;20097;-80
2023/07/02 05:55:56;;;;;;;12.95;3.78;;;;;;;13.26;100.00;100069.00;4964915;28;20084;-81
2023/07/02 05:58:22;;;;;;;23.05;4.38;;;;;;;13.27;100.00;100073.31;4948731;28;20030;-82
2023/07/02 06:00:49;;;;;;;19.35;3.53;;;;;;;13.29;100.00;100075.78;4945465;28;20930;-82
2023/07/02 06:03:19;;;;;;;16.17;3.17;;;;;;;13.37;100.00;100067.81;4973170;28;20050;-81
2023/07/02 06:05:49;;;;;;;26.05;3.53;;;;;;;13.40;100.00;100062.16;4969416;28;20436;-80
2023/07/02 06:08:16;;;;;;;19.45;3.50;;;;;;;13.43;100.00;100068.09;4972600;28;20042;-81
2023/07/02 06:10:42;;;;;;;13.18;2.35;;;;;;;13.41;100.00;100068.28;4942260;28;20125;-80
2023/07/02 06:13:08;;;;;;;24.17;3.45;;;;;;;13.40;100.00;100071.94;4955105;28;20045;-81
2023/07/02 06:15:34;;;;;;;23.20;3.95;;;;;;;13.43;100.00;100078.72;4951917;28;20038;-80
2023/07/02 06:18:00;;;;;;;24.98;3.47;;;;;;;13.43;100.00;100078.72;4955194;28;20038;-81
2023/07/02 06:20:26;;;;;;;18.02;3.53;;;;;;;13.44;100.00;100067.91;4964915;28;20047;-80
2023/07/02 06:22:51;;;;;;;13.82;3.05;;;;;;;13.40;100.00;100066.63;4985505;28;20030;-80
2023/07/02 06:25:17;;;;;;;17.52;2.85;;;;;;;13.43;100.00;100062.78;4942219;28;20388;-80
2023/07/02 06:27:43;;;;;;;23.27;3.13;;;;;;;13.46;100.00;100052.66;4958778;28;20038;-80
2023/07/02 06:30:09;;;;;;;20.02;3.80;;;;;;;13.50;100.00;100058.47;4974632;28;20045;-81
2023/07/02 06:32:35;;;;;;;14.55;3.17;;;;;;;13.55;100.00;100065.94;4951865;28;20029;-82
2023/07/02 06:35:01;;;;;;;15.20;3.60;;;;;;;13.58;100.00;100062.94;4943596;28;20125;-82
2023/07/02 06:37:27;;;;;;;23.23;4.28;;;;;;;13.64;100.00;100057.75;4955726;28;20038;-80
2023/07/02 06:39:53;;;;;;;21.20;3.17;;;;;;;13.69;100.00;100059.06;4971003;28;20041;-80
2023/07/02 06:42:18;;;;;;;17.15;3.15;;;;;;;13.73;100.00;100057.69;4957557;28;20031;-80
2023/07/02 06:44:44;;;;;;;14.95;2.85;;;;;;;13.74;100.00;100054.84;4969746;28;20524;-81
2023/07/02 06:47:10;;;;;;;15.90;3.45;;;;;;;13.82;100.00;100056.66;4973882;28;20075;-79
2023/07/02 06:49:36;;;;;;;14.85;3.53;;;;;;;13.88;100.00;100063.09;4957481;28;20054;-81
2023/07/02 06:52:02;;;;;;;19.67;3.67;;;;;;;13.87;100.00;100064.09;4954144;28;20122;-80
2023/07/02 06:54:28;;;;;;;19.67;3.70;;;;;;;13.83;100.00;100073.41;4957287;28;20050;-80
2023/07/02 06:56:54;;;;;;;19.27;4.30;;;;;;;13.82;100.00;100064.63;4954024;28;20104;-80
2023/07/02 06:59:23;;;;;;;16.20;3.50;;;;;;;13.89;100.00;100062.09;4941926;28;20490;-82
2023/07/02 07:01:52;;;;;;;14.82;3.00;;;;;;;13.95;100.00;100053.41;4949361;28;20421;-80
2023/07/02 07:04:18;;;;;;;19.33;3.22;;;;;;;13.91;100.00;100068.06;4956545;28;20150;-80
2023/07/02 07:06:44;;;;;;;17.58;2.53;;;;;;;13.91;100.00;100065.41;4949009;28;20492;-80
2023/07/02 07:09:10;;;;;;;16.85;2.88;;;;;;;13.92;100.00;100067.03;4957858;28;20029;-80
2023/07/02 07:11:36;;;;;;;12.85;2.83;;;;;;;13.95;100.00;100072.00;4948121;28;20034;-81
2023/07/02 07:14:01;;;;;;;96.88;69.68;;;;;;;13.96;100.00;100068.38;4961036;28;20038;-81
2023/07/02 07:16:27;;;;;;;23.08;18.95;;;;;;;13.98;100.00;100071.66;4964203;28;20026;-80
2023/07/02 07:18:53;;;;;;;27.15;16.23;;;;;;;13.98;100.00;100070.84;4946970;28;20034;-80
2023/07/02 07:21:19;;;;;;;1999.90;999.90;;;;;;;13.99;100.00;100070.66;4970476;28;20050;-80
2023/07/02 07:23:45;;;;;;;1999.90;999.90;;;;;;;13.99;100.00;100069.84;4957828;28;20441;-81
2023/07/02 07:26:11;;;;;;;1999.90;999.90;;;;;;;13.96;100.00;100070.19;4951725;28;20046;-80
2023/07/02 07:28:37;;;;;;;1999.90;999.90;;;;;;;13.98;100.00;100076.16;4938015;28;20037;-80
2023/07/02 07:31:03;;;;;;;1999.90;999.90;;;;;;;14.01;100.00;100073.97;4961123;28;20069;-81
2023/07/02 07:33:29;;;;;;;1999.90;999.90;;;;;;;14.06;100.00;100072.63;4951311;28;20054;-80
2023/07/02 07:35:55;;;;;;;1999.90;999.90;;;;;;;14.14;100.00;100075.22;4945524;28;20409;-81
2023/07/02 07:38:20;;;;;;;1999.90;999.90;;;;;;;14.12;100.00;100070.09;4954300;28;20041;-80
2023/07/02 07:40:46;;;;;;;1999.90;999.90;;;;;;;14.09;100.00;100075.75;4958041;28;20045;-81
2023/07/02 07:43:12;;;;;;;1999.90;999.90;;;;;;;14.13;100.00;100076.22;4958502;28;20046;-82
2023/07/02 07:45:38;;;;;;;15.05;3.65;;;;;;;14.09;100.00;100078.41;4955086;28;20125;-83
2023/07/02 07:48:05;;;;;;;26.25;23.58;;;;;;;14.11;100.00;100075.59;4933308;28;20492;-81
2023/07/02 07:50:31;;;;;;;53.20;48.65;;;;;;;14.05;100.00;100076.28;4970319;28;20030;-80
2023/07/02 07:52:57;;;;;;;48.65;43.92;;;;;;;13.97;100.00;100077.16;4968032;28;20034;-81
2023/07/02 07:55:23;;;;;;;123.28;114.93;;;;;;;13.94;100.00;100081.00;4957143;28;20492;-81
2023/07/02 07:57:49;;;;;;;1999.90;999.90;;;;;;;13.94;100.00;100077.50;4956553;28;22051;-81
2023/07/02 08:00:17;;;;;;;1999.90;999.90;;;;;;;13.93;100.00;100073.19;4981194;28;20419;-80
2023/07/02 08:02:50;;;;;;;1999.90;999.90;;;;;;;13.95;100.00;100076.50;4961609;28;20045;-81
2023/07/02 08:05:16;;;;;;;1999.90;999.90;;;;;;;13.93;100.00;100087.31;4979245;28;20034;-79
2023/07/02 08:07:42;;;;;;;1999.90;999.90;;;;;;;13.89;100.00;100097.47;4953392;28;20041;-81
2023/07/02 08:10:08;;;;;;;109.35;102.22;;;;;;;13.84;100.00;100088.38;4952822;28;20034;-81
2023/07/02 08:12:34;;;;;;;1999.90;999.90;;;;;;;13.71;100.00;100088.94;4969432;28;20456;-80
2023/07/02 08:15:00;;;;;;;128.43;119.75;;;;;;;13.62;100.00;100080.16;4957104;28;20123;-80
2023/07/02 08:17:26;;;;;;;1999.90;999.90;;;;;;;13.64;100.00;100079.00;4938788;28;20401;-79
2023/07/02 08:19:52;;;;;;;1999.90;999.90;;;;;;;13.64;100.00;100081.66;4953983;28;20043;-80
2023/07/02 08:22:18;;;;;;;1999.90;999.90;;;;;;;13.79;100.00;100077.44;4983638;28;20443;-81
2023/07/02 08:24:44;;;;;;;1999.90;999.90;;;;;;;13.83;100.00;100078.72;4970507;28;20037;-81
2023/07/02 08:27:13;;;;;;;53.45;49.10;;;;;;;13.91;100.00;100081.34;4989630;28;20034;-81
2023/07/02 08:29:39;;;;;;;53.75;49.63;;;;;;;13.97;100.00;100077.16;4969018;28;20469;-80
2023/07/02 08:32:06;;;;;;;64.72;7.47;;;;;;;14.08;100.00;100073.28;4970698;28;20039;-80
2023/07/02 08:34:31;;;;;;;19.83;2.65;;;;;;;14.26;100.00;100078.28;4989784;28;20045;-80
2023/07/02 08:36:57;;;;;;;12.30;2.17;;;;;;;14.42;100.00;100063.19;4949952;28;20041;-80
2023/07/02 08:39:23;;;;;;;16.95;2.58;;;;;;;14.53;100.00;100076.06;4975410;28;20100;-82
2023/07/02 08:41:49;;;;;;;13.70;2.38;;;;;;;14.49;100.00;100070.28;4969585;28;20090;-82
2023/07/02 08:44:21;;;;;;;15.48;2.22;;;;;;;14.51;100.00;100060.31;4970197;28;20034;-83
2023/07/02 08:46:50;;;;;;;14.00;2.70;;;;;;;14.51;100.00;100062.97;4962589;28;20110;-83
2023/07/02 08:49:17;;;;;;;13.27;2.45;;;;;;;14.56;100.00;100058.91;4980819;28;20061;-80
2023/07/02 08:51:47;;;;;;;12.52;3.00;;;;;;;14.66;100.00;100058.66;4960639;28;20058;-81
2023/07/02 08:54:14;;;;;;;14.25;2.13;;;;;;;14.75;100.00;100047.78;5002916;28;20117;-84
2023/07/02 08:56:40;;;;;;;12.15;2.40;;;;;;;14.81;100.00;100056.88;4966183;28;20492;-82
2023/07/02 08:59:09;;;;;;;13.95;2.00;;;;;;;14.90;100.00;100052.31;4945688;28;20042;-82
2023/07/02 09:01:49;;;;;;;16.33;2.67;;;;;;;14.98;100.00;100052.25;4971805;28;20034;-81
2023/07/02 09:04:24;;;;;;;15.23;2.30;;;;;;;15.05;100.00;100054.97;4956190;28;20492;-82
2023/07/02 09:07:26;;;;;;;15.23;2.13;;;;;;;15.05;100.00;100054.97;4967930;28;20046;-83
2023/07/02 09:09:52;;;;;;;16.40;2.38;;;;;;;15.09;100.00;100048.28;4919423;29;20047;-81
2023/07/02 09:12:28;;;;;;;14.73;2.53;;;;;;;15.18;100.00;100045.53;4960602;28;20057;-81
2023/07/02 09:14:56;;;;;;;14.25;3.08;;;;;;;15.17;100.00;100052.69;4961115;28;20042;-80
2023/07/02 09:17:26;;;;;;;16.70;2.80;;;;;;;15.23;100.00;100041.28;4941042;28;20515;-81
2023/07/02 09:19:52;;;;;;;10.35;2.45;;;;;;;15.18;100.00;100046.34;4978637;28;20035;-81
2023/07/02 09:22:19;;;;;;;8.65;1.85;;;;;;;15.04;100.00;100052.50;4959068;28;20121;-81
2023/07/02 09:24:55;;;;;;;12.00;2.50;;;;;;;14.83;100.00;100054.03;4972743;28;20035;-80
2023/07/02 09:27:21;;;;;;;10.38;2.25;;;;;;;14.68;100.00;100054.84;4971737;28;20038;-81
2023/07/02 09:29:54;;;;;;;13.35;2.90;;;;;;;14.69;100.00;100048.50;4956785;28;20085;-81
2023/07/02 09:32:27;;;;;;;13.90;2.10;;;;;;;14.79;100.00;100053.59;4986831;28;20026;-81
2023/07/02 09:34:55;;;;;;;14.30;2.10;;;;;;;14.88;100.00;100049.00;4964293;28;20062;-81
2023/07/02 09:37:22;;;;;;;10.18;2.72;;;;;;;14.94;100.00;100034.97;4972045;28;20049;-79
2023/07/02 09:39:51;;;;;;;13.90;2.42;;;;;;;15.06;100.00;100039.84;4959429;28;20030;-79
2023/07/02 09:42:19;;;;;;;11.55;2.75;;;;;;;15.13;100.00;100040.75;4967441;28;20030;-79
2023/07/02 09:44:46;;;;;;;11.43;2.17;;;;;;;15.13;100.00;100044.22;4962641;28;20038;-79
2023/07/02 09:47:13;;;;;;;14.13;2.58;;;;;;;15.08;100.00;100035.97;4960097;28;20057;-79
2023/07/02 09:49:49;;;;;;;10.18;2.17;;;;;;;15.06;100.00;100043.34;4972242;28;20137;-81
2023/07/02 09:52:16;;;;;;;15.32;2.60;;;;;;;14.99;100.00;100048.56;4940283;28;20050;-80
2023/07/02 09:54:42;;;;;;;13.05;1.88;;;;;;;14.88;100.00;100051.66;4955221;28;20042;-81
2023/07/02 09:57:08;;;;;;;10.98;1.90;;;;;;;14.70;100.00;100046.69;4956069;28;20057;-81
2023/07/02 09:59:38;;;;;;;12.18;1.60;;;;;;;14.63;100.00;100046.56;4958450;28;20588;-80
2023/07/02 10:02:04;;;;;;;11.75;2.22;;;;;;;14.59;100.00;100055.91;4958337;28;20042;-80
2023/07/02 10:04:43;;;;;;;11.23;2.03;;;;;;;14.56;100.00;100057.09;4942820;28;20030;-83
2023/07/02 10:07:10;;;;;;;8.45;2.15;;;;;;;14.45;100.00;100061.03;5003496;28;20065;-81
2023/07/02 10:09:44;;;;;;;10.45;1.77;;;;;;;14.49;100.00;100061.50;4984319;28;20113;-81
2023/07/02 10:12:22;;;;;;;8.48;1.50;;;;;;;14.61;100.00;100057.38;4970711;28;20066;-81
2023/07/02 10:14:51;;;;;;;8.48;1.88;;;;;;;14.81;100.00;100051.56;4958989;28;20042;-81
2023/07/02 10:17:54;;;;;;;10.82;1.50;;;;;;;15.03;100.00;100049.03;4962627;28;20097;-80
2023/07/02 10:20:35;;;;;;;8.68;1.42;;;;;;;15.17;100.00;100055.34;4974983;28;20117;-83
2023/07/02 10:23:01;;;;;;;9.98;1.83;;;;;;;15.32;100.00;100060.66;4967937;28;20037;-83
2023/07/02 10:25:38;;;;;;;7.07;1.25;;;;;;;15.53;100.00;100047.59;4973596;28;20038;-85
2023/07/02 10:28:19;;;;;;;6.32;0.80;;;;;;;15.71;100.00;100048.00;4962183;28;20034;-80
2023/07/02 10:30:45;;;;;;;8.77;1.52;;;;;;;15.78;100.00;100056.06;4958863;28;20085;-82
2023/07/02 10:33:12;;;;;;;6.68;1.42;;;;;;;15.91;100.00;100049.22;4958165;28;20042;-80
2023/07/02 10:35:41;;;;;;;5.80;1.30;;;;;;;15.91;100.00;100041.25;4954151;28;20425;-80
2023/07/02 10:38:07;;;;;;;7.55;1.15;;;;;;;15.96;100.00;100036.13;4953889;28;20034;-81
2023/07/02 10:40:34;;;;;;;7.50;1.70;;;;;;;16.06;100.00;100043.84;4942273;28;20038;-81
2023/07/02 10:43:00;;;;;;;6.07;1.00;;;;;;;16.11;100.00;100044.97;4972931;28;20392;-81
2023/07/02 10:45:33;;;;;;;3.63;0.82;;;;;;;16.18;100.00;100046.84;4955105;28;20431;-81
2023/07/02 10:48:08;;;;;;;6.95;1.00;;;;;;;16.14;100.00;100049.06;4950776;28;20034;-81
2023/07/02 10:50:34;;;;;;;7.03;1.02;;;;;;;16.21;100.00;100044.59;4968468;28;20377;-82
2023/07/02 10:53:00;;;;;;;6.03;0.95;;;;;;;16.35;100.00;100056.25;4976019;28;20564;-81
2023/07/02 10:55:27;;;;;;;6.05;0.90;;;;;;;16.48;100.00;100044.84;4952121;28;20042;-82
2023/07/02 10:58:08;;;;;;;7.28;1.00;;;;;;;16.55;100.00;100046.72;4973886;28;20038;-84
2023/07/02 11:00:47;;;;;;;8.93;1.52;;;;;;;16.44;100.00;100030.25;4973380;28;20065;-82
2023/07/02 11:03:25;;;;;;;8.60;1.35;;;;;;;16.47;100.00;100026.34;4948156;28;20038;-81
2023/07/02 11:05:52;;;;;;;10.93;1.80;;;;;;;16.39;100.00;100034.53;4973703;28;20038;-81
2023/07/02 11:08:21;;;;;;;5.78;0.65;;;;;;;16.06;100.00;100050.03;4963991;28;20026;-79